Terminal Aerodrome Forecast
Issued by NWS

Home | Current Version | Previous Version | Graphics & Text | Print | Product List | Glossary On
Versions: 1 2 3 4 5 6 7 8 9 10 11 12 13 14 15
000
FTUS43 KGRB 172340
TAFAUW
TAF
KAUW 172340Z 1800/1824 17004KT 2SM -DZ BR OVC005
     FM180300 VRB03KT 3SM -DZ BR OVC004
     FM180600 35005KT 5SM BR VCSH OVC005
     FM181400 34010G16KT P6SM SCT008 BKN025
     FM181700 33014G23KT P6SM SCT025 BKN040=

USA.gov is the U.S. government's official web portal to all federal, state and local government web resources and services.